Time;durP1;ratioP1;P1;durP2;ratioP2;P2;SDS_P1;SDS_P2;PMS_P1;PMS_P2;Temp;Humidity;BMP_temperature;BMP_pressure;BME280_temperature;BME280_humidity;BME280_pressure;Samples;Min_cycle;Max_cycle;Signal;HPM_P1;HPM_P2
2021/07/26 00:00:08;;;;;;;15.63;11.98;;;20.20;99.90;;;;;;5235674;28;20571;-66
2021/07/26 00:02:40;;;;;;;13.63;11.80;;;20.20;99.90;;;;;;5250939;28;20546;-67
2021/07/26 00:05:13;;;;;;;14.63;12.35;;;20.10;99.90;;;;;;5235207;28;20205;-66
2021/07/26 00:07:45;;;;;;;17.58;12.35;;;20.10;99.90;;;;;;5235137;28;20225;-67
2021/07/26 00:10:17;;;;;;;18.50;13.23;;;20.10;99.90;;;;;;5235748;28;20523;-63
2021/07/26 00:12:49;;;;;;;14.32;12.57;;;20.10;99.90;;;;;;5234954;28;20248;-67
2021/07/26 00:15:24;;;;;;;16.02;12.95;;;20.00;99.90;;;;;;5235200;28;20205;-66
2021/07/26 00:17:56;;;;;;;16.17;12.15;;;20.00;99.90;;;;;;5237939;28;20220;-69
2021/07/26 00:20:28;;;;;;;17.20;12.38;;;20.00;99.90;;;;;;5209529;28;20201;-66
2021/07/26 00:23:00;;;;;;;15.75;13.25;;;20.00;99.90;;;;;;5243488;28;20536;-65
2021/07/26 00:25:32;;;;;;;16.25;12.23;;;20.00;99.90;;;;;;5251603;28;20204;-68
2021/07/26 00:28:04;;;;;;;16.92;12.38;;;19.90;99.90;;;;;;5238541;28;20687;-68
2021/07/26 00:30:39;;;;;;;15.25;11.70;;;20.00;99.90;;;;;;5255004;28;20200;-67
2021/07/26 00:33:39;;;;;;;12.95;11.50;;;20.00;99.90;;;;;;5237963;28;20235;-68
2021/07/26 00:36:13;;;;;;;15.13;11.38;;;19.90;99.90;;;;;;5230732;28;20220;-67
2021/07/26 00:38:45;;;;;;;13.45;10.93;;;19.90;99.90;;;;;;5232579;28;20582;-66
2021/07/26 00:41:18;;;;;;;13.05;10.77;;;19.90;99.90;;;;;;5233180;28;20278;-69
2021/07/26 00:43:50;;;;;;;13.13;11.40;;;19.90;99.90;;;;;;5216814;28;20259;-66
2021/07/26 00:46:22;;;;;;;13.65;11.52;;;19.90;99.90;;;;;;5234219;28;20205;-66
2021/07/26 00:48:56;;;;;;;12.15;10.68;;;19.90;99.90;;;;;;5232774;28;20241;-66
2021/07/26 00:51:28;;;;;;;14.00;10.88;;;19.90;99.90;;;;;;5233781;28;20221;-68
2021/07/26 00:54:00;;;;;;;13.80;10.32;;;19.90;99.90;;;;;;5229906;28;20677;-67
2021/07/26 00:56:32;;;;;;;14.77;11.70;;;19.90;99.90;;;;;;5230509;28;20629;-66
2021/07/26 00:59:10;;;;;;;15.02;11.45;;;19.90;99.90;;;;;;5231512;28;20259;-66
2021/07/26 01:01:42;;;;;;;13.63;11.20;;;19.90;99.90;;;;;;5230728;28;20640;-67
2021/07/26 01:04:15;;;;;;;13.18;11.27;;;19.90;99.90;;;;;;5246767;28;20239;-66
2021/07/26 01:06:48;;;;;;;16.80;11.50;;;19.80;99.90;;;;;;5231713;28;20661;-67
2021/07/26 01:09:20;;;;;;;14.20;11.30;;;19.80;99.90;;;;;;5231443;28;20332;-68
2021/07/26 01:11:58;;;;;;;14.20;12.00;;;19.80;99.90;;;;;;5231611;28;20310;-69
2021/07/26 01:14:30;;;;;;;14.88;11.27;;;19.80;99.90;;;;;;5232108;28;20232;-66
2021/07/26 01:17:03;;;;;;;14.77;11.73;;;19.80;99.90;;;;;;5231960;28;20210;-66
2021/07/26 01:19:34;;;;;;;12.93;11.52;;;19.70;99.90;;;;;;5231425;28;20221;-66
2021/07/26 01:22:07;;;;;;;16.55;12.48;;;19.70;99.90;;;;;;5231264;28;20616;-69
2021/07/26 01:24:41;;;;;;;13.82;12.07;;;19.70;99.90;;;;;;5231121;28;20251;-67
2021/07/26 01:27:13;;;;;;;14.80;12.15;;;19.50;99.90;;;;;;5246657;28;20221;-66
2021/07/26 01:29:45;;;;;;;14.93;11.90;;;19.50;99.90;;;;;;5230806;28;20238;-67
2021/07/26 01:32:19;;;;;;;14.07;11.88;;;19.50;99.90;;;;;;5230142;28;20229;-71
2021/07/26 01:34:55;;;;;;;15.30;13.63;;;19.40;99.90;;;;;;5230628;28;20331;-65
2021/07/26 01:37:27;;;;;;;15.32;12.45;;;19.40;99.90;;;;;;5230784;28;20186;-67
2021/07/26 01:39:59;;;;;;;14.70;12.63;;;19.40;99.90;;;;;;5230001;28;20566;-65
2021/07/26 01:42:34;;;;;;;17.73;12.95;;;19.40;99.90;;;;;;5213216;28;20212;-64
2021/07/26 01:45:07;;;;;;;17.30;13.02;;;19.40;99.90;;;;;;5230044;28;20240;-66
2021/07/26 01:47:50;;;;;;;17.30;13.77;;;19.40;99.90;;;;;;5230851;28;20197;-67
2021/07/26 01:50:23;;;;;;;16.02;13.02;;;19.50;99.90;;;;;;5230529;28;20244;-69
2021/07/26 01:52:56;;;;;;;14.82;12.30;;;19.50;99.90;;;;;;5230517;28;20210;-66
2021/07/26 01:55:30;;;;;;;16.00;11.93;;;19.50;99.90;;;;;;5230123;28;20287;-67
2021/07/26 01:58:02;;;;;;;16.17;11.93;;;19.40;99.90;;;;;;5229449;28;20197;-66
2021/07/26 02:00:34;;;;;;;15.98;12.90;;;19.40;99.90;;;;;;5230205;28;20542;-66
2021/07/26 02:03:06;;;;;;;17.20;14.02;;;19.30;99.90;;;;;;5230275;28;20205;-67
2021/07/26 02:05:38;;;;;;;15.93;12.85;;;19.40;99.90;;;;;;5229300;28;20555;-69
2021/07/26 02:08:10;;;;;;;13.15;11.57;;;19.30;99.90;;;;;;5229144;28;20512;-66
2021/07/26 02:10:42;;;;;;;15.82;12.43;;;19.30;99.90;;;;;;5230297;28;20217;-66
2021/07/26 02:13:14;;;;;;;14.05;12.00;;;19.30;99.90;;;;;;5229068;28;20279;-67
2021/07/26 02:15:46;;;;;;;16.05;13.60;;;19.30;99.90;;;;;;5229886;28;20212;-68
2021/07/26 02:18:18;;;;;;;15.45;11.70;;;19.20;99.90;;;;;;5230028;28;20247;-67
2021/07/26 02:20:50;;;;;;;13.23;11.80;;;19.20;99.90;;;;;;5229930;28;20511;-66
2021/07/26 02:23:22;;;;;;;15.90;11.88;;;19.20;99.90;;;;;;5230069;28;20217;-67
2021/07/26 02:25:56;;;;;;;12.98;11.43;;;19.20;99.90;;;;;;5228787;28;20209;-66
2021/07/26 02:28:28;;;;;;;13.52;12.02;;;19.20;99.90;;;;;;5230205;28;20593;-68
2021/07/26 02:31:02;;;;;;;13.35;11.18;;;19.20;99.90;;;;;;5229849;28;20209;-68
2021/07/26 02:33:34;;;;;;;14.57;12.95;;;19.20;99.90;;;;;;5229503;28;20259;-68
2021/07/26 02:36:06;;;;;;;14.13;11.95;;;19.20;99.90;;;;;;5228135;28;20208;-68
2021/07/26 02:38:38;;;;;;;15.20;12.60;;;19.10;99.90;;;;;;5228157;28;20201;-70
2021/07/26 02:41:14;;;;;;;14.68;12.10;;;19.10;99.90;;;;;;5228993;28;20557;-67
2021/07/26 02:43:46;;;;;;;17.52;13.30;;;19.10;99.90;;;;;;5228625;28;20205;-71
2021/07/26 02:46:18;;;;;;;17.98;13.70;;;19.10;99.90;;;;;;5229503;28;20209;-68
2021/07/26 02:48:50;;;;;;;17.45;14.05;;;19.10;99.90;;;;;;5229240;28;20206;-68
2021/07/26 02:51:22;;;;;;;15.80;13.68;;;19.00;99.90;;;;;;5228140;28;20212;-66
2021/07/26 02:53:54;;;;;;;16.48;13.73;;;19.00;99.90;;;;;;5229253;28;20197;-65
2021/07/26 02:56:28;;;;;;;15.27;13.25;;;19.00;99.90;;;;;;5228557;28;20259;-68
2021/07/26 02:59:00;;;;;;;15.68;13.98;;;19.00;99.90;;;;;;5227980;28;20201;-66
2021/07/26 03:01:34;;;;;;;15.77;13.00;;;19.00;99.90;;;;;;5228321;28;20590;-69
2021/07/26 03:04:10;;;;;;;15.77;12.65;;;18.90;99.90;;;;;;5228077;28;20288;-69
2021/07/26 03:06:42;;;;;;;14.65;13.13;;;18.90;99.90;;;;;;5228338;28;20227;-64
2021/07/26 03:09:14;;;;;;;15.18;13.55;;;18.90;99.90;;;;;;5229056;28;20202;-64
2021/07/26 03:11:48;;;;;;;16.70;13.68;;;18.90;99.90;;;;;;5229145;28;20240;-68
2021/07/26 03:14:21;;;;;;;20.85;14.27;;;18.90;99.90;;;;;;5228034;28;20205;-66
2021/07/26 03:16:53;;;;;;;15.73;13.10;;;18.80;99.90;;;;;;5227469;28;20235;-67
2021/07/26 03:19:25;;;;;;;14.73;12.82;;;18.90;99.90;;;;;;5229059;28;20596;-67
2021/07/26 03:22:48;;;;;;;15.27;12.60;;;18.80;99.90;;;;;;5211537;28;20212;-72
2021/07/26 03:25:20;;;;;;;13.90;11.98;;;18.90;99.90;;;;;;5206520;28;20186;-72
2021/07/26 03:27:54;;;;;;;15.57;13.23;;;19.00;99.90;;;;;;5227192;28;20216;-68
2021/07/26 03:30:29;;;;;;;15.70;12.60;;;19.00;99.90;;;;;;5227980;28;20200;-65
2021/07/26 03:33:01;;;;;;;12.95;11.65;;;19.00;99.90;;;;;;5227446;28;20242;-64
2021/07/26 03:35:33;;;;;;;13.25;11.85;;;19.00;99.90;;;;;;5227792;28;20620;-68
2021/07/26 03:38:07;;;;;;;16.10;12.10;;;19.10;99.90;;;;;;5228368;28;20210;-67
2021/07/26 03:40:42;;;;;;;13.80;11.55;;;19.20;99.90;;;;;;5228541;28;20597;-66
2021/07/26 03:43:19;;;;;;;13.00;11.57;;;19.20;99.90;;;;;;5228680;28;20209;-65
2021/07/26 03:45:51;;;;;;;14.35;11.23;;;19.40;99.90;;;;;;5228148;28;20190;-64
2021/07/26 03:48:26;;;;;;;17.70;13.80;;;19.40;99.90;;;;;;5228034;28;20213;-66
2021/07/26 03:50:58;;;;;;;14.68;12.43;;;19.50;99.90;;;;;;5227879;28;20217;-68
2021/07/26 03:53:30;;;;;;;19.30;14.05;;;19.60;99.90;;;;;;5227053;28;20232;-66
2021/07/26 03:56:05;;;;;;;16.95;13.07;;;19.80;99.90;;;;;;5227760;28;20201;-65
2021/07/26 03:58:36;;;;;;;16.42;13.75;;;19.80;99.90;;;;;;5228278;28;20254;-65
2021/07/26 04:01:08;;;;;;;21.23;13.90;;;19.90;99.90;;;;;;5228201;28;20201;-65
2021/07/26 04:03:41;;;;;;;16.55;14.20;;;20.00;99.90;;;;;;5227987;28;20213;-65
2021/07/26 04:06:17;;;;;;;16.05;13.85;;;20.00;99.90;;;;;;5228482;28;20560;-65
2021/07/26 04:08:53;;;;;;;23.23;14.88;;;20.00;99.90;;;;;;5228549;28;20189;-64
2021/07/26 04:11:28;;;;;;;18.67;13.57;;;20.00;99.90;;;;;;5228505;28;20220;-64
2021/07/26 04:14:04;;;;;;;15.05;13.00;;;20.00;99.90;;;;;;5243558;28;20213;-67
2021/07/26 04:16:36;;;;;;;16.95;14.10;;;20.10;99.90;;;;;;5228729;28;20190;-65
2021/07/26 04:19:11;;;;;;;15.75;13.32;;;20.10;99.90;;;;;;5228756;28;20667;-67
2021/07/26 04:21:45;;;;;;;16.65;12.57;;;20.20;99.90;;;;;;5249362;28;20208;-70
2021/07/26 04:24:17;;;;;;;18.60;14.00;;;20.20;99.90;;;;;;5248294;28;20504;-66
2021/07/26 04:26:55;;;;;;;19.02;13.90;;;20.20;99.90;;;;;;5249597;28;20185;-68
2021/07/26 04:29:27;;;;;;;15.07;13.38;;;20.20;99.90;;;;;;5252490;28;20196;-67
2021/07/26 04:31:58;;;;;;;19.35;13.35;;;20.20;99.90;;;;;;5245917;28;20612;-64
2021/07/26 04:34:30;;;;;;;16.95;13.55;;;20.30;99.90;;;;;;5230518;28;20225;-64
2021/07/26 04:37:05;;;;;;;15.20;12.32;;;20.40;99.90;;;;;;5231361;28;20271;-66
2021/07/26 04:39:39;;;;;;;19.02;13.65;;;20.50;99.90;;;;;;5231190;28;20522;-68
2021/07/26 04:42:11;;;;;;;14.90;12.25;;;20.60;99.90;;;;;;5231010;28;20216;-64
2021/07/26 04:44:43;;;;;;;16.23;13.27;;;20.70;99.90;;;;;;5230723;28;20263;-65
2021/07/26 04:47:15;;;;;;;17.98;13.85;;;20.70;99.90;;;;;;5231145;28;20237;-70
2021/07/26 04:49:47;;;;;;;17.90;12.45;;;20.80;99.90;;;;;;5231329;28;20201;-66
2021/07/26 04:52:19;;;;;;;21.75;13.82;;;20.80;99.90;;;;;;5231801;28;20229;-68
2021/07/26 04:54:54;;;;;;;19.13;13.25;;;20.80;99.90;;;;;;5231888;28;20252;-69
2021/07/26 04:57:26;;;;;;;15.63;13.80;;;20.80;99.90;;;;;;5231111;28;20204;-66
2021/07/26 04:59:59;;;;;;;19.27;13.77;;;20.80;99.90;;;;;;5214506;28;20201;-67
2021/07/26 05:02:31;;;;;;;19.17;13.77;;;20.80;99.90;;;;;;5198267;28;20538;-67
2021/07/26 05:05:03;;;;;;;26.23;13.57;;;20.80;99.90;;;;;;5231344;28;20206;-68
2021/07/26 05:07:38;;;;;;;17.33;12.88;;;20.90;99.90;;;;;;5229832;28;20292;-69
2021/07/26 05:10:13;;;;;;;20.17;13.60;;;20.90;99.90;;;;;;5230162;28;20612;-68
2021/07/26 05:12:45;;;;;;;20.48;13.88;;;21.00;99.90;;;;;;5230309;28;20224;-70
2021/07/26 05:15:16;;;;;;;18.13;13.27;;;21.00;99.90;;;;;;5230670;28;20212;-68
2021/07/26 05:17:49;;;;;;;18.35;13.38;;;21.00;99.90;;;;;;5230697;28;20201;-68
2021/07/26 05:20:21;;;;;;;24.30;13.45;;;21.00;99.90;;;;;;5230813;28;20212;-67
2021/07/26 05:22:53;;;;;;;16.58;12.77;;;21.00;99.90;;;;;;5229706;28;20221;-70
2021/07/26 05:25:27;;;;;;;19.15;13.20;;;21.00;99.90;;;;;;5229547;28;20213;-67
2021/07/26 05:28:00;;;;;;;14.65;12.93;;;21.10;99.90;;;;;;5230981;28;20209;-68
2021/07/26 05:30:32;;;;;;;17.42;12.93;;;21.10;99.90;;;;;;5231504;28;20213;-73
2021/07/26 05:33:04;;;;;;;21.02;13.48;;;21.10;99.90;;;;;;5235401;28;20229;-72
2021/07/26 05:35:40;;;;;;;17.30;14.15;;;21.10;99.90;;;;;;5239872;28;20209;-70
2021/07/26 05:38:12;;;;;;;16.25;13.35;;;21.20;99.90;;;;;;5251187;28;20236;-72
2021/07/26 05:40:44;;;;;;;20.58;14.45;;;21.30;99.90;;;;;;5251870;28;20205;-58
2021/07/26 05:43:16;;;;;;;20.15;12.75;;;21.30;99.90;;;;;;5245793;28;20222;-54
2021/07/26 05:45:49;;;;;;;19.10;12.85;;;21.40;99.90;;;;;;5229562;28;20214;-59
2021/07/26 05:48:21;;;;;;;22.52;14.70;;;21.50;99.90;;;;;;5230241;28;20241;-64
2021/07/26 05:50:55;;;;;;;24.90;13.20;;;21.50;99.90;;;;;;5213129;28;20213;-61
2021/07/26 05:53:27;;;;;;;24.48;12.85;;;21.50;99.90;;;;;;5212809;28;20682;-60
2021/07/26 05:55:59;;;;;;;24.90;13.57;;;21.60;99.90;;;;;;5230537;28;20213;-59
2021/07/26 05:58:32;;;;;;;21.00;13.23;;;21.50;99.90;;;;;;5229335;28;20252;-59
2021/07/26 06:03:45;;;;;;;20.27;13.10;;;21.50;99.90;;;;;;5229624;28;20237;-57
2021/07/26 06:06:17;;;;;;;23.80;12.88;;;21.50;99.90;;;;;;5230260;28;20220;-58
2021/07/26 06:08:49;;;;;;;19.35;13.90;;;21.50;99.90;;;;;;5230203;28;20205;-60
2021/07/26 06:11:21;;;;;;;20.70;13.63;;;21.50;99.90;;;;;;5229369;28;20565;-60
2021/07/26 06:13:53;;;;;;;19.60;12.55;;;21.50;99.90;;;;;;5229977;28;20232;-59
2021/07/26 06:16:28;;;;;;;19.88;13.15;;;21.50;99.90;;;;;;5212453;28;20714;-61
2021/07/26 06:19:01;;;;;;;17.95;13.48;;;21.60;99.90;;;;;;5229040;28;20229;-57
2021/07/26 06:21:33;;;;;;;24.25;13.27;;;21.70;99.90;;;;;;5228910;28;20216;-66
2021/07/26 06:24:05;;;;;;;23.33;13.15;;;21.90;99.90;;;;;;5229855;28;20302;-59
2021/07/26 06:26:38;;;;;;;15.50;11.45;;;22.10;99.90;;;;;;5228808;28;20213;-63
2021/07/26 06:29:13;;;;;;;20.90;13.00;;;22.40;99.90;;;;;;5212350;28;20554;-62
2021/07/26 06:31:49;;;;;;;18.40;12.70;;;22.70;99.90;;;;;;5230057;28;20212;-61
2021/07/26 06:34:21;;;;;;;17.45;12.30;;;22.80;99.90;;;;;;5229308;28;20237;-62
2021/07/26 06:36:53;;;;;;;19.23;12.77;;;22.90;99.90;;;;;;5229761;28;20215;-62
2021/07/26 06:39:25;;;;;;;18.33;12.18;;;22.80;99.90;;;;;;5211173;28;20671;-59
2021/07/26 06:42:00;;;;;;;18.75;12.13;;;22.90;99.90;;;;;;5211850;28;20212;-64
2021/07/26 06:44:33;;;;;;;15.30;11.63;;;23.00;99.90;;;;;;5228451;28;20224;-63
2021/07/26 06:47:05;;;;;;;15.65;11.82;;;22.90;99.90;;;;;;5195951;28;20209;-62
2021/07/26 06:49:37;;;;;;;15.35;11.73;;;22.90;99.90;;;;;;5228002;28;20225;-55
2021/07/26 06:52:09;;;;;;;14.95;11.73;;;22.90;99.90;;;;;;5228806;28;20238;-60
2021/07/26 06:54:41;;;;;;;14.25;11.02;;;22.80;99.90;;;;;;5229058;28;20248;-57
2021/07/26 06:57:13;;;;;;;12.98;11.10;;;22.80;99.90;;;;;;5228186;28;20209;-59
2021/07/26 06:59:45;;;;;;;16.15;11.80;;;22.80;99.90;;;;;;5229043;28;20229;-62
2021/07/26 07:02:18;;;;;;;14.77;11.55;;;22.90;99.90;;;;;;5228011;28;20629;-50
2021/07/26 07:04:51;;;;;;;15.15;11.35;;;22.90;99.90;;;;;;5227774;28;20239;-57
2021/07/26 07:07:25;;;;;;;14.30;11.30;;;22.90;99.90;;;;;;5227537;28;20224;-53
2021/07/26 07:09:57;;;;;;;18.55;11.18;;;23.00;99.90;;;;;;5227988;28;20643;-60
2021/07/26 07:12:32;;;;;;;13.57;11.32;;;23.10;99.90;;;;;;5227768;28;20221;-65
2021/07/26 07:15:04;;;;;;;14.73;11.02;;;23.20;99.90;;;;;;5227994;28;20229;-68
2021/07/26 07:17:37;;;;;;;15.77;11.40;;;23.40;99.90;;;;;;5227931;28;20224;-61
2021/07/26 07:20:09;;;;;;;15.07;11.88;;;23.50;99.90;;;;;;5228606;28;20225;-58
2021/07/26 07:22:41;;;;;;;16.13;12.15;;;23.60;99.90;;;;;;5227731;28;20220;-58
2021/07/26 07:25:15;;;;;;;19.70;11.40;;;23.60;99.90;;;;;;5211763;28;20249;-62
2021/07/26 07:27:47;;;;;;;18.80;12.40;;;23.70;99.90;;;;;;5211329;28;20259;-57
2021/07/26 07:30:21;;;;;;;18.23;11.25;;;23.90;99.90;;;;;;5228478;28;20221;-59
2021/07/26 07:32:53;;;;;;;18.17;10.98;;;24.10;99.90;;;;;;5211931;28;20228;-62
2021/07/26 07:35:29;;;;;;;16.42;11.57;;;24.10;99.90;;;;;;5228384;28;20555;-58
2021/07/26 07:38:03;;;;;;;17.38;12.10;;;24.10;99.90;;;;;;5228752;28;20197;-66
2021/07/26 07:40:37;;;;;;;16.38;11.40;;;24.10;99.90;;;;;;5228102;28;20252;-59
2021/07/26 07:43:09;;;;;;;18.42;11.77;;;24.20;99.90;;;;;;5227425;28;20210;-59
2021/07/26 07:45:41;;;;;;;15.48;12.05;;;24.60;99.90;;;;;;5227324;28;20229;-57
2021/07/26 07:48:17;;;;;;;16.15;11.93;;;24.70;99.90;;;;;;5228522;28;20220;-64
2021/07/26 07:50:49;;;;;;;15.70;11.50;;;24.80;99.90;;;;;;5228713;28;20233;-58
2021/07/26 07:53:22;;;;;;;18.25;11.70;;;24.70;99.90;;;;;;5227446;28;20229;-59
2021/07/26 07:55:55;;;;;;;17.15;11.48;;;24.70;99.90;;;;;;5228662;28;20312;-61
2021/07/26 07:58:30;;;;;;;19.05;12.60;;;24.60;99.90;;;;;;5228592;28;20213;-59
2021/07/26 08:01:05;;;;;;;16.58;12.75;;;24.60;99.90;;;;;;5211187;28;20234;-59
2021/07/26 08:03:37;;;;;;;16.92;12.07;;;24.40;99.90;;;;;;5212275;28;20228;-59
2021/07/26 08:06:09;;;;;;;14.82;11.82;;;24.30;99.90;;;;;;5211572;28;20229;-59
2021/07/26 08:08:41;;;;;;;19.52;12.80;;;24.20;99.90;;;;;;5227747;28;20217;-54
2021/07/26 08:11:13;;;;;;;16.13;12.43;;;24.20;99.90;;;;;;5212178;28;20245;-59
2021/07/26 08:13:45;;;;;;;15.35;13.05;;;24.10;99.90;;;;;;5211151;28;20230;-58
2021/07/26 08:16:22;;;;;;;16.23;11.65;;;24.10;99.90;;;;;;5227501;28;20234;-63
2021/07/26 08:19:02;;;;;;;13.52;11.30;;;24.20;99.90;;;;;;5210756;28;20205;-62
2021/07/26 08:21:34;;;;;;;15.73;11.50;;;24.20;99.90;;;;;;5227310;28;20230;-58
2021/07/26 08:24:06;;;;;;;13.70;11.43;;;24.20;99.90;;;;;;5211654;28;20264;-59
2021/07/26 08:26:38;;;;;;;17.00;11.40;;;24.20;99.90;;;;;;5227030;28;20226;-62
2021/07/26 08:29:10;;;;;;;17.23;12.50;;;24.20;99.90;;;;;;5226995;28;20206;-56
2021/07/26 08:31:42;;;;;;;16.75;11.85;;;24.20;99.90;;;;;;5217514;28;20244;-60
2021/07/26 08:34:16;;;;;;;14.60;12.25;;;24.20;99.90;;;;;;5231831;28;20347;-56
2021/07/26 08:36:48;;;;;;;22.08;12.75;;;24.20;99.90;;;;;;5214609;28;20241;-54
2021/07/26 08:39:22;;;;;;;14.80;11.93;;;24.10;99.90;;;;;;5214451;28;20216;-59
2021/07/26 08:41:55;;;;;;;17.88;12.18;;;24.00;99.90;;;;;;5230614;28;20320;-58
2021/07/26 08:44:28;;;;;;;14.10;11.43;;;24.00;99.90;;;;;;5231500;28;20200;-60
2021/07/26 08:47:03;;;;;;;19.17;10.80;;;23.90;99.90;;;;;;5231396;28;20205;-57
2021/07/26 08:49:35;;;;;;;13.02;10.63;;;23.80;99.90;;;;;;5231691;28;20201;-57
2021/07/26 08:52:11;;;;;;;17.05;10.85;;;23.80;99.90;;;;;;5231565;28;20243;-57
2021/07/26 08:54:43;;;;;;;15.25;11.60;;;23.80;99.90;;;;;;5230395;28;20558;-57
2021/07/26 08:57:16;;;;;;;17.45;11.77;;;23.70;99.90;;;;;;5227687;28;20217;-48
2021/07/26 08:59:48;;;;;;;12.85;10.98;;;23.70;99.90;;;;;;5227496;28;20574;-58
2021/07/26 09:02:20;;;;;;;12.80;10.52;;;23.60;99.90;;;;;;5230750;28;20208;-60
2021/07/26 09:04:55;;;;;;;13.55;10.68;;;23.60;99.90;;;;;;5230432;28;20259;-55
2021/07/26 09:07:27;;;;;;;11.02;9.57;;;23.50;99.90;;;;;;5231319;28;20215;-59
2021/07/26 09:10:00;;;;;;;13.77;10.43;;;23.50;99.90;;;;;;5230344;28;20201;-57
2021/07/26 09:12:40;;;;;;;12.13;9.88;;;23.50;99.90;;;;;;5230563;28;20241;-56
2021/07/26 09:15:25;;;;;;;13.25;9.93;;;23.50;99.90;;;;;;5230442;28;20227;-58
2021/07/26 09:18:00;;;;;;;17.48;11.85;;;23.40;99.90;;;;;;5231016;28;20212;-55
2021/07/26 09:20:34;;;;;;;18.85;12.05;;;23.30;99.90;;;;;;5230393;28;20201;-55
2021/07/26 09:23:17;;;;;;;22.27;12.93;;;23.10;99.90;;;;;;5231038;28;20209;-60
2021/07/26 09:25:50;;;;;;;16.92;12.93;;;23.00;99.90;;;;;;5230050;28;20216;-53
2021/07/26 09:28:22;;;;;;;13.73;12.10;;;22.90;99.90;;;;;;5229644;28;20227;-55
2021/07/26 09:30:55;;;;;;;14.93;11.68;;;22.90;99.90;;;;;;5230074;28;20200;-57
2021/07/26 09:33:28;;;;;;;15.35;11.85;;;22.90;99.90;;;;;;5228974;28;20221;-56
2021/07/26 09:36:14;;;;;;;16.83;13.25;;;23.00;99.90;;;;;;5236309;28;20189;-52
2021/07/26 09:38:49;;;;;;;18.38;12.00;;;23.10;99.90;;;;;;5241626;28;20311;-56
2021/07/26 09:41:44;;;;;;;22.00;13.35;;;23.20;99.90;;;;;;5230956;28;20205;-55
2021/07/26 09:44:24;;;;;;;17.77;12.93;;;23.30;99.90;;;;;;5229271;28;20554;-57
2021/07/26 09:47:18;;;;;;;23.20;13.80;;;23.40;99.90;;;;;;5230466;28;20216;-60
2021/07/26 09:49:50;;;;;;;27.23;15.25;;;23.60;99.90;;;;;;5228663;28;20236;-53
2021/07/26 09:52:22;;;;;;;21.25;14.82;;;23.70;99.90;;;;;;5213359;28;20216;-57
2021/07/26 09:54:55;;;;;;;18.23;14.13;;;23.60;99.90;;;;;;5229611;28;20239;-60
2021/07/26 09:57:30;;;;;;;18.33;13.57;;;23.60;99.90;;;;;;5212826;28;20205;-59
2021/07/26 10:00:02;;;;;;;19.08;13.65;;;23.60;99.90;;;;;;5213494;28;20216;-59
2021/07/26 10:02:37;;;;;;;16.40;13.75;;;23.60;99.90;;;;;;5229192;28;20193;-57
2021/07/26 10:05:11;;;;;;;20.33;12.75;;;23.50;99.90;;;;;;5220087;28;20245;-54
2021/07/26 10:07:44;;;;;;;18.08;13.80;;;23.40;99.90;;;;;;5209440;28;20202;-59
2021/07/26 10:10:21;;;;;;;19.85;14.05;;;23.50;99.90;;;;;;5208254;28;20325;-57
2021/07/26 10:12:54;;;;;;;19.55;14.32;;;23.50;99.90;;;;;;5209176;28;20209;-53
2021/07/26 10:15:28;;;;;;;21.38;14.25;;;23.40;99.90;;;;;;5209332;28;20238;-59
2021/07/26 10:18:00;;;;;;;21.85;14.00;;;23.30;99.90;;;;;;5241220;28;20216;-57
2021/07/26 10:20:40;;;;;;;20.88;14.52;;;23.30;99.90;;;;;;5210177;28;20603;-53
2021/07/26 10:23:15;;;;;;;21.63;14.20;;;23.30;99.90;;;;;;5212402;28;20215;-60
2021/07/26 10:26:23;;;;;;;23.05;16.33;;;23.30;99.90;;;;;;5228783;28;20232;-58
2021/07/26 10:28:58;;;;;;;18.80;15.52;;;23.10;99.90;;;;;;5229760;28;20206;-58
2021/07/26 10:31:32;;;;;;;22.27;15.25;;;23.10;99.90;;;;;;5228450;28;20346;-53
2021/07/26 10:34:09;;;;;;;20.90;15.15;;;23.10;99.90;;;;;;5229597;28;20260;-55
2021/07/26 10:36:42;;;;;;;24.27;15.88;;;23.20;99.90;;;;;;5229669;28;20221;-57
2021/07/26 10:39:18;;;;;;;26.27;16.30;;;23.30;99.90;;;;;;5237698;28;20193;-53
2021/07/26 10:41:52;;;;;;;25.52;17.10;;;23.40;99.90;;;;;;5234140;28;20224;-59
2021/07/26 10:44:25;;;;;;;21.15;15.25;;;23.60;99.90;;;;;;5229400;28;20217;-57
2021/07/26 10:46:57;;;;;;;20.48;15.82;;;23.60;99.90;;;;;;5229307;28;20636;-53
2021/07/26 10:49:43;;;;;;;17.80;15.18;;;23.60;99.90;;;;;;5228883;28;20260;-58
2021/07/26 10:52:21;;;;;;;18.70;15.35;;;23.60;99.90;;;;;;5229040;28;20237;-55
2021/07/26 10:54:57;;;;;;;17.10;14.43;;;23.60;99.90;;;;;;5228942;28;20225;-55
2021/07/26 10:57:49;;;;;;;17.45;14.63;;;23.60;99.90;;;;;;5227876;28;20668;-57
2021/07/26 11:00:25;;;;;;;19.83;13.82;;;23.80;99.90;;;;;;5228881;28;20280;-54
2021/07/26 11:03:01;;;;;;;18.77;13.00;;;23.90;99.90;;;;;;5228620;28;20549;-59
2021/07/26 11:05:33;;;;;;;15.60;13.13;;;24.00;99.90;;;;;;5227743;28;20212;-58
2021/07/26 11:08:20;;;;;;;16.38;13.85;;;24.00;99.90;;;;;;5229386;28;20209;-54
2021/07/26 11:10:59;;;;;;;18.30;13.07;;;23.90;99.90;;;;;;5229086;28;20205;-58
2021/07/26 11:13:46;;;;;;;15.73;12.27;;;23.80;99.90;;;;;;5228627;28;20306;-55
2021/07/26 11:16:56;;;;;;;16.58;12.77;;;23.70;99.90;;;;;;5229076;28;20600;-60
2021/07/26 11:19:32;;;;;;;17.88;13.27;;;23.50;99.90;;;;;;5228958;28;20209;-56
2021/07/26 11:22:17;;;;;;;21.38;14.50;;;23.30;99.90;;;;;;5228341;28;20205;-56
2021/07/26 11:24:56;;;;;;;23.35;13.70;;;23.10;99.90;;;;;;5228500;28;20201;-58
2021/07/26 11:27:39;;;;;;;17.10;12.88;;;22.90;99.90;;;;;;5228920;28;20229;-61
2021/07/26 11:30:12;;;;;;;27.70;13.48;;;22.80;99.90;;;;;;5227697;28;20236;-57
2021/07/26 11:32:52;;;;;;;20.70;13.95;;;22.70;99.90;;;;;;5210495;28;20244;-60
2021/07/26 11:35:30;;;;;;;16.08;13.15;;;22.70;99.90;;;;;;5229872;28;20228;-51
2021/07/26 11:38:08;;;;;;;15.98;13.45;;;22.70;99.90;;;;;;5228110;28;20605;-54
2021/07/26 11:40:40;;;;;;;20.17;13.65;;;22.70;99.90;;;;;;5228473;28;20197;-52
2021/07/26 11:43:12;;;;;;;15.80;13.05;;;22.70;99.90;;;;;;5227434;28;20229;-61
2021/07/26 11:45:47;;;;;;;18.48;13.00;;;22.80;99.90;;;;;;5228215;28;20205;-53
2021/07/26 11:48:26;;;;;;;15.90;12.43;;;22.80;99.90;;;;;;5228078;28;20229;-56
2021/07/26 11:50:58;;;;;;;18.70;12.30;;;23.00;99.90;;;;;;5229031;28;20221;-60
2021/07/26 11:53:30;;;;;;;17.05;13.23;;;23.10;99.90;;;;;;5228377;28;20233;-53
2021/07/26 11:56:17;;;;;;;15.75;12.57;;;23.30;99.90;;;;;;5228086;28;20220;-56
2021/07/26 11:58:48;;;;;;;16.00;11.95;;;23.60;99.90;;;;;;5228162;28;20240;-59
2021/07/26 12:01:23;;;;;;;16.98;11.80;;;24.00;99.90;;;;;;5227319;28;20196;-55
2021/07/26 12:03:55;;;;;;;19.02;12.15;;;24.30;99.90;;;;;;5227220;28;20221;-51
2021/07/26 12:06:28;;;;;;;14.80;11.77;;;24.60;99.90;;;;;;5211172;28;20205;-61
2021/07/26 12:09:02;;;;;;;14.63;12.05;;;24.70;99.90;;;;;;5227309;28;20222;-58
2021/07/26 12:11:36;;;;;;;15.68;12.20;;;24.80;99.90;;;;;;5228534;28;20201;-57
2021/07/26 12:14:30;;;;;;;14.32;11.63;;;25.00;99.90;;;;;;5226862;28;20233;-53
2021/07/26 12:17:24;;;;;;;13.60;11.25;;;25.30;99.90;;;;;;5228175;28;20224;-50
2021/07/26 12:20:03;;;;;;;15.45;11.15;;;25.40;99.90;;;;;;5226752;28;20543;-54
2021/07/26 12:22:41;;;;;;;17.30;11.48;;;25.60;99.90;;;;;;5226641;28;20532;-54
2021/07/26 12:25:21;;;;;;;18.38;12.00;;;25.70;99.90;;;;;;5226719;28;20233;-57
2021/07/26 12:28:02;;;;;;;17.10;11.90;;;25.60;99.90;;;;;;5225411;28;20200;-61
2021/07/26 12:30:44;;;;;;;17.05;11.82;;;25.30;99.90;;;;;;5225826;28;20275;-56
2021/07/26 12:33:27;;;;;;;15.80;11.27;;;25.20;99.90;;;;;;5227099;28;20205;-60
2021/07/26 12:36:17;;;;;;;14.60;11.45;;;25.20;99.90;;;;;;5227597;28;20240;-56
2021/07/26 12:39:10;;;;;;;14.90;10.73;;;25.10;99.90;;;;;;5227832;28;20205;-58
2021/07/26 12:41:44;;;;;;;13.57;10.10;;;25.10;99.90;;;;;;5227838;28;20197;-57
2021/07/26 12:44:26;;;;;;;18.25;11.75;;;25.20;99.90;;;;;;5228140;28;20206;-59
2021/07/26 12:47:01;;;;;;;13.82;10.48;;;25.30;99.90;;;;;;5210326;28;20232;-56
2021/07/26 12:49:33;;;;;;;13.00;10.95;;;25.40;99.90;;;;;;5230310;28;20220;-61
2021/07/26 12:52:10;;;;;;;15.30;10.70;;;25.50;99.90;;;;;;5231544;28;20205;-58
2021/07/26 12:54:43;;;;;;;15.63;11.40;;;25.50;99.90;;;;;;5229817;28;20228;-56
2021/07/26 12:57:20;;;;;;;17.48;11.80;;;25.60;99.90;;;;;;5213068;28;20205;-59
2021/07/26 12:59:54;;;;;;;20.48;11.25;;;25.70;99.90;;;;;;5230758;28;20186;-56
2021/07/26 13:02:28;;;;;;;14.95;11.18;;;25.80;99.90;;;;;;5209677;28;20201;-60
2021/07/26 13:05:04;;;;;;;15.45;11.20;;;26.10;99.90;;;;;;5209695;28;20205;-54
2021/07/26 13:07:36;;;;;;;17.25;10.57;;;26.30;99.90;;;;;;5214504;28;20216;-53